Terminal Aerodrome Forecast
Issued by NWS

Home | Current Version | Previous Version | Graphics & Text | Print | Product List | Glossary On
Versions: 1 2 3 4 5 6 7 8 9 10 11 12 13 14 15 16 17 18
000
FTUS43 KUNR 052327
TAFGCC
TAF
KGCC 052327Z 0600/0624 35012KT P6SM SCT010 OVC020
      TEMPO 0600/0603 4SM -SHRA OVC010
     FM060400 33006KT P6SM OVC020
     FM060900 33006KT P6SM BKN010
     FM061700 34010KT P6SM SCT010=

USA.gov is the U.S. government's official web portal to all federal, state and local government web resources and services.